OERK/RUH METAR and TAF weather

Enter ICAO airport designator
Station Type Date Time Source
OERK METAR 2019/08/22 04:00 UTC NOAA

OERK 220400Z 00000KT CAVOK 29/08 Q1009 NOSIG


Station Type Date Time Source
OERK Decoded METAR 2019/08/22 04:00 UTC NOAA

Station name not available
Aug 22, 2019 - 12:00 AM EDT / 2019.08.22 0400 UTC
Wind: Calm:0
Visibility: greater than 7 mile(s):0
Temperature: 84 F (29 C)
Dew Point: 46 F (8 C)
Relative Humidity: 26%
Pressure (altimeter): 29.80 in. Hg (1009 hPa)
ob: OERK 220400Z 00000KT CAVOK 29/08 Q1009 NOSIG
cycle: 4

Station Type Date Time Source
OERK TAF 2019/08/21 18:06 UTC NOAA

TAF OERK 211700Z 2118/2224 VRB03KT 7000 NSC
BECMG 2206/2208 34014KT

Example: see airport list